sensor_id;sensor_type;location;lat;lon;timestamp;P1;durP1;ratioP1;P2;durP2;ratioP2
53052;SDS011;38934;52.690;6.184;2023-05-07T00:02:10;20.02;;;17.60;;
53052;SDS011;38934;52.690;6.184;2023-05-07T00:04:35;19.70;;;16.60;;
53052;SDS011;38934;52.690;6.184;2023-05-07T00:07:02;21.17;;;16.90;;
53052;SDS011;38934;52.690;6.184;2023-05-07T00:09:28;20.48;;;16.60;;
53052;SDS011;38934;52.690;6.184;2023-05-07T00:11:55;22.63;;;18.23;;
53052;SDS011;38934;52.690;6.184;2023-05-07T00:14:22;19.65;;;17.10;;
53052;SDS011;38934;52.690;6.184;2023-05-07T00:16:48;20.83;;;18.15;;
53052;SDS011;38934;52.690;6.184;2023-05-07T00:19:13;19.58;;;16.55;;
53052;SDS011;38934;52.690;6.184;2023-05-07T00:21:39;19.67;;;17.33;;
53052;SDS011;38934;52.690;6.184;2023-05-07T00:24:05;21.08;;;16.75;;
53052;SDS011;38934;52.690;6.184;2023-05-07T00:26:30;24.50;;;19.05;;
53052;SDS011;38934;52.690;6.184;2023-05-07T00:28:56;21.20;;;18.63;;
53052;SDS011;38934;52.690;6.184;2023-05-07T00:31:24;21.58;;;17.80;;
53052;SDS011;38934;52.690;6.184;2023-05-07T00:33:50;20.63;;;18.40;;
53052;SDS011;38934;52.690;6.184;2023-05-07T00:36:15;20.70;;;17.15;;
53052;SDS011;38934;52.690;6.184;2023-05-07T00:38:41;23.05;;;18.67;;
53052;SDS011;38934;52.690;6.184;2023-05-07T00:41:08;21.90;;;18.00;;
53052;SDS011;38934;52.690;6.184;2023-05-07T00:43:33;20.45;;;17.98;;
53052;SDS011;38934;52.690;6.184;2023-05-07T00:45:59;23.35;;;20.83;;
53052;SDS011;38934;52.690;6.184;2023-05-07T00:48:25;22.60;;;19.05;;
53052;SDS011;38934;52.690;6.184;2023-05-07T00:50:51;26.17;;;22.25;;
53052;SDS011;38934;52.690;6.184;2023-05-07T00:53:17;24.83;;;21.23;;
53052;SDS011;38934;52.690;6.184;2023-05-07T00:55:43;26.77;;;21.25;;
53052;SDS011;38934;52.690;6.184;2023-05-07T00:58:08;25.90;;;22.27;;
53052;SDS011;38934;52.690;6.184;2023-05-07T01:00:34;25.67;;;21.52;;
53052;SDS011;38934;52.690;6.184;2023-05-07T01:03:01;25.90;;;22.40;;
53052;SDS011;38934;52.690;6.184;2023-05-07T01:05:26;28.45;;;23.75;;
53052;SDS011;38934;52.690;6.184;2023-05-07T01:07:53;31.05;;;25.02;;
53052;SDS011;38934;52.690;6.184;2023-05-07T01:10:20;23.40;;;20.80;;
53052;SDS011;38934;52.690;6.184;2023-05-07T01:12:46;35.42;;;25.23;;
53052;SDS011;38934;52.690;6.184;2023-05-07T01:15:12;29.25;;;23.60;;
53052;SDS011;38934;52.690;6.184;2023-05-07T01:17:39;30.40;;;25.40;;
53052;SDS011;38934;52.690;6.184;2023-05-07T01:20:06;26.67;;;22.83;;
53052;SDS011;38934;52.690;6.184;2023-05-07T01:24:59;22.98;;;19.60;;
53052;SDS011;38934;52.690;6.184;2023-05-07T01:27:27;28.50;;;23.67;;
53052;SDS011;38934;52.690;6.184;2023-05-07T01:29:53;28.52;;;24.52;;
53052;SDS011;38934;52.690;6.184;2023-05-07T01:32:21;32.20;;;26.33;;
53052;SDS011;38934;52.690;6.184;2023-05-07T01:34:54;25.77;;;22.10;;
53052;SDS011;38934;52.690;6.184;2023-05-07T01:37:20;30.77;;;25.60;;
53052;SDS011;38934;52.690;6.184;2023-05-07T01:39:47;33.97;;;26.15;;
53052;SDS011;38934;52.690;6.184;2023-05-07T01:42:13;31.15;;;23.65;;
53052;SDS011;38934;52.690;6.184;2023-05-07T01:44:38;27.58;;;22.98;;
53052;SDS011;38934;52.690;6.184;2023-05-07T01:47:04;27.02;;;22.85;;
53052;SDS011;38934;52.690;6.184;2023-05-07T01:49:31;28.42;;;22.90;;
53052;SDS011;38934;52.690;6.184;2023-05-07T01:51:57;28.05;;;22.85;;
53052;SDS011;38934;52.690;6.184;2023-05-07T01:54:26;29.83;;;23.58;;
53052;SDS011;38934;52.690;6.184;2023-05-07T01:56:58;28.00;;;22.40;;
53052;SDS011;38934;52.690;6.184;2023-05-07T01:59:25;25.30;;;19.85;;
53052;SDS011;38934;52.690;6.184;2023-05-07T02:01:51;28.17;;;20.75;;
53052;SDS011;38934;52.690;6.184;2023-05-07T02:04:17;28.25;;;20.15;;
53052;SDS011;38934;52.690;6.184;2023-05-07T02:06:43;30.20;;;20.80;;
53052;SDS011;38934;52.690;6.184;2023-05-07T02:09:08;26.67;;;20.73;;
53052;SDS011;38934;52.690;6.184;2023-05-07T02:11:34;26.48;;;20.10;;
53052;SDS011;38934;52.690;6.184;2023-05-07T02:14:00;26.65;;;20.00;;
53052;SDS011;38934;52.690;6.184;2023-05-07T02:16:25;27.58;;;20.05;;
53052;SDS011;38934;52.690;6.184;2023-05-07T02:18:51;26.02;;;19.40;;
53052;SDS011;38934;52.690;6.184;2023-05-07T02:21:17;25.50;;;18.52;;
53052;SDS011;38934;52.690;6.184;2023-05-07T02:23:43;23.77;;;18.65;;
53052;SDS011;38934;52.690;6.184;2023-05-07T02:26:08;22.80;;;18.23;;
53052;SDS011;38934;52.690;6.184;2023-05-07T02:28:35;22.83;;;18.13;;
53052;SDS011;38934;52.690;6.184;2023-05-07T02:31:02;23.77;;;18.10;;
53052;SDS011;38934;52.690;6.184;2023-05-07T02:33:29;26.50;;;20.08;;
53052;SDS011;38934;52.690;6.184;2023-05-07T02:35:55;24.98;;;19.80;;
53052;SDS011;38934;52.690;6.184;2023-05-07T02:38:20;25.00;;;19.88;;
53052;SDS011;38934;52.690;6.184;2023-05-07T02:40:46;26.55;;;18.85;;
53052;SDS011;38934;52.690;6.184;2023-05-07T02:43:12;25.45;;;18.75;;
53052;SDS011;38934;52.690;6.184;2023-05-07T02:45:37;24.05;;;19.02;;
53052;SDS011;38934;52.690;6.184;2023-05-07T02:48:05;24.60;;;18.58;;
53052;SDS011;38934;52.690;6.184;2023-05-07T02:50:31;25.65;;;19.63;;
53052;SDS011;38934;52.690;6.184;2023-05-07T02:52:57;24.50;;;19.83;;
53052;SDS011;38934;52.690;6.184;2023-05-07T02:55:24;27.40;;;20.48;;
53052;SDS011;38934;52.690;6.184;2023-05-07T02:57:50;28.65;;;21.23;;
53052;SDS011;38934;52.690;6.184;2023-05-07T03:00:17;26.75;;;20.38;;
53052;SDS011;38934;52.690;6.184;2023-05-07T03:02:46;26.73;;;20.15;;
53052;SDS011;38934;52.690;6.184;2023-05-07T03:05:12;27.20;;;20.67;;
53052;SDS011;38934;52.690;6.184;2023-05-07T03:07:45;27.30;;;21.65;;
53052;SDS011;38934;52.690;6.184;2023-05-07T03:10:11;29.48;;;21.27;;
53052;SDS011;38934;52.690;6.184;2023-05-07T03:12:37;27.70;;;21.63;;
53052;SDS011;38934;52.690;6.184;2023-05-07T03:15:03;28.10;;;21.17;;
53052;SDS011;38934;52.690;6.184;2023-05-07T03:17:30;28.75;;;21.48;;
53052;SDS011;38934;52.690;6.184;2023-05-07T03:22:25;28.08;;;21.13;;
53052;SDS011;38934;52.690;6.184;2023-05-07T03:24:50;27.85;;;21.42;;
53052;SDS011;38934;52.690;6.184;2023-05-07T03:27:16;26.63;;;21.40;;
53052;SDS011;38934;52.690;6.184;2023-05-07T03:29:42;27.02;;;21.33;;
53052;SDS011;38934;52.690;6.184;2023-05-07T03:32:09;26.50;;;21.23;;
53052;SDS011;38934;52.690;6.184;2023-05-07T03:34:35;29.50;;;21.48;;
53052;SDS011;38934;52.690;6.184;2023-05-07T03:37:01;26.35;;;20.42;;
53052;SDS011;38934;52.690;6.184;2023-05-07T03:39:32;31.10;;;23.38;;
53052;SDS011;38934;52.690;6.184;2023-05-07T03:41:58;30.48;;;23.40;;
53052;SDS011;38934;52.690;6.184;2023-05-07T03:44:24;30.10;;;22.02;;
53052;SDS011;38934;52.690;6.184;2023-05-07T03:46:49;30.25;;;22.75;;
53052;SDS011;38934;52.690;6.184;2023-05-07T03:49:15;36.08;;;23.83;;
53052;SDS011;38934;52.690;6.184;2023-05-07T03:51:42;30.77;;;23.10;;
53052;SDS011;38934;52.690;6.184;2023-05-07T03:54:10;30.50;;;22.48;;
53052;SDS011;38934;52.690;6.184;2023-05-07T03:56:36;32.63;;;23.48;;
53052;SDS011;38934;52.690;6.184;2023-05-07T03:59:03;28.23;;;22.45;;
53052;SDS011;38934;52.690;6.184;2023-05-07T04:01:28;30.38;;;24.00;;
53052;SDS011;38934;52.690;6.184;2023-05-07T04:03:54;31.52;;;23.00;;
53052;SDS011;38934;52.690;6.184;2023-05-07T04:06:22;33.70;;;23.63;;
53052;SDS011;38934;52.690;6.184;2023-05-07T04:08:54;30.10;;;23.95;;
53052;SDS011;38934;52.690;6.184;2023-05-07T04:11:36;30.33;;;22.15;;
53052;SDS011;38934;52.690;6.184;2023-05-07T04:14:07;32.93;;;23.10;;
53052;SDS011;38934;52.690;6.184;2023-05-07T04:16:32;33.28;;;24.00;;
53052;SDS011;38934;52.690;6.184;2023-05-07T04:19:00;32.13;;;24.30;;
53052;SDS011;38934;52.690;6.184;2023-05-07T04:21:34;31.67;;;23.20;;
53052;SDS011;38934;52.690;6.184;2023-05-07T04:26:31;30.02;;;23.10;;
53052;SDS011;38934;52.690;6.184;2023-05-07T04:28:56;32.95;;;23.48;;
53052;SDS011;38934;52.690;6.184;2023-05-07T04:31:24;33.80;;;24.58;;
53052;SDS011;38934;52.690;6.184;2023-05-07T04:33:51;30.23;;;22.48;;
53052;SDS011;38934;52.690;6.184;2023-05-07T04:36:17;33.80;;;25.50;;
53052;SDS011;38934;52.690;6.184;2023-05-07T04:38:43;32.90;;;23.83;;
53052;SDS011;38934;52.690;6.184;2023-05-07T04:43:42;34.28;;;23.73;;
53052;SDS011;38934;52.690;6.184;2023-05-07T04:46:08;34.47;;;25.20;;
53052;SDS011;38934;52.690;6.184;2023-05-07T04:48:33;34.35;;;23.98;;
53052;SDS011;38934;52.690;6.184;2023-05-07T04:50:59;34.47;;;24.80;;
53052;SDS011;38934;52.690;6.184;2023-05-07T04:53:27;34.15;;;25.15;;
53052;SDS011;38934;52.690;6.184;2023-05-07T04:58:28;34.13;;;26.70;;
53052;SDS011;38934;52.690;6.184;2023-05-07T05:00:57;37.85;;;26.92;;
53052;SDS011;38934;52.690;6.184;2023-05-07T05:03:24;35.10;;;25.30;;
53052;SDS011;38934;52.690;6.184;2023-05-07T05:05:51;36.50;;;26.27;;
53052;SDS011;38934;52.690;6.184;2023-05-07T05:08:19;38.40;;;27.15;;
53052;SDS011;38934;52.690;6.184;2023-05-07T05:10:47;40.50;;;28.00;;
53052;SDS011;38934;52.690;6.184;2023-05-07T05:13:20;35.15;;;24.73;;
53052;SDS011;38934;52.690;6.184;2023-05-07T05:15:46;42.17;;;27.98;;
53052;SDS011;38934;52.690;6.184;2023-05-07T05:18:14;40.38;;;27.80;;
53052;SDS011;38934;52.690;6.184;2023-05-07T05:20:39;43.03;;;29.60;;
53052;SDS011;38934;52.690;6.184;2023-05-07T05:23:05;37.30;;;27.23;;
53052;SDS011;38934;52.690;6.184;2023-05-07T05:25:32;38.33;;;26.90;;
53052;SDS011;38934;52.690;6.184;2023-05-07T05:27:58;39.40;;;28.15;;
53052;SDS011;38934;52.690;6.184;2023-05-07T05:30:28;40.75;;;27.95;;
53052;SDS011;38934;52.690;6.184;2023-05-07T05:32:53;38.60;;;27.85;;
53052;SDS011;38934;52.690;6.184;2023-05-07T05:35:25;40.67;;;28.45;;
53052;SDS011;38934;52.690;6.184;2023-05-07T05:37:50;39.30;;;27.63;;
53052;SDS011;38934;52.690;6.184;2023-05-07T05:40:16;48.47;;;29.73;;
53052;SDS011;38934;52.690;6.184;2023-05-07T05:42:43;41.10;;;28.55;;
53052;SDS011;38934;52.690;6.184;2023-05-07T05:45:10;38.30;;;28.88;;
53052;SDS011;38934;52.690;6.184;2023-05-07T05:47:36;35.17;;;26.25;;
53052;SDS011;38934;52.690;6.184;2023-05-07T05:50:03;40.15;;;27.35;;
53052;SDS011;38934;52.690;6.184;2023-05-07T05:52:31;40.03;;;27.77;;
53052;SDS011;38934;52.690;6.184;2023-05-07T05:54:56;43.13;;;29.63;;
53052;SDS011;38934;52.690;6.184;2023-05-07T05:57:22;37.60;;;27.63;;
53052;SDS011;38934;52.690;6.184;2023-05-07T05:59:48;39.05;;;28.35;;
53052;SDS011;38934;52.690;6.184;2023-05-07T06:02:15;37.28;;;27.13;;
53052;SDS011;38934;52.690;6.184;2023-05-07T06:04:40;38.53;;;28.85;;
53052;SDS011;38934;52.690;6.184;2023-05-07T06:07:15;36.78;;;27.95;;
53052;SDS011;38934;52.690;6.184;2023-05-07T06:09:42;38.22;;;28.25;;
53052;SDS011;38934;52.690;6.184;2023-05-07T06:12:14;40.45;;;28.25;;
53052;SDS011;38934;52.690;6.184;2023-05-07T06:14:42;34.40;;;25.38;;
53052;SDS011;38934;52.690;6.184;2023-05-07T06:17:11;39.75;;;28.48;;
53052;SDS011;38934;52.690;6.184;2023-05-07T06:19:37;37.85;;;26.27;;
53052;SDS011;38934;52.690;6.184;2023-05-07T06:22:03;39.67;;;27.70;;
53052;SDS011;38934;52.690;6.184;2023-05-07T06:24:29;41.05;;;28.83;;
53052;SDS011;38934;52.690;6.184;2023-05-07T06:26:55;39.25;;;27.85;;
53052;SDS011;38934;52.690;6.184;2023-05-07T06:32:18;36.70;;;26.98;;
53052;SDS011;38934;52.690;6.184;2023-05-07T06:34:46;37.80;;;27.77;;
53052;SDS011;38934;52.690;6.184;2023-05-07T06:37:12;39.33;;;27.83;;
53052;SDS011;38934;52.690;6.184;2023-05-07T06:39:37;36.88;;;26.83;;
53052;SDS011;38934;52.690;6.184;2023-05-07T06:42:03;36.28;;;27.77;;
53052;SDS011;38934;52.690;6.184;2023-05-07T06:44:29;32.95;;;25.58;;
53052;SDS011;38934;52.690;6.184;2023-05-07T06:49:25;32.53;;;25.55;;
53052;SDS011;38934;52.690;6.184;2023-05-07T06:51:50;33.75;;;25.45;;
53052;SDS011;38934;52.690;6.184;2023-05-07T06:54:17;33.67;;;24.85;;
53052;SDS011;38934;52.690;6.184;2023-05-07T06:56:44;33.53;;;24.75;;
53052;SDS011;38934;52.690;6.184;2023-05-07T06:59:10;35.65;;;25.73;;
53052;SDS011;38934;52.690;6.184;2023-05-07T07:01:39;34.63;;;24.05;;
53052;SDS011;38934;52.690;6.184;2023-05-07T07:04:05;33.05;;;24.42;;
53052;SDS011;38934;52.690;6.184;2023-05-07T07:06:31;30.73;;;23.42;;
53052;SDS011;38934;52.690;6.184;2023-05-07T07:08:57;32.22;;;25.55;;
53052;SDS011;38934;52.690;6.184;2023-05-07T07:11:34;29.77;;;23.27;;
53052;SDS011;38934;52.690;6.184;2023-05-07T07:14:00;28.10;;;23.10;;
53052;SDS011;38934;52.690;6.184;2023-05-07T07:16:31;30.17;;;23.77;;
53052;SDS011;38934;52.690;6.184;2023-05-07T07:18:59;29.20;;;23.08;;
53052;SDS011;38934;52.690;6.184;2023-05-07T07:21:24;29.90;;;22.52;;
53052;SDS011;38934;52.690;6.184;2023-05-07T07:23:51;29.52;;;23.15;;
53052;SDS011;38934;52.690;6.184;2023-05-07T07:26:17;30.42;;;23.23;;
53052;SDS011;38934;52.690;6.184;2023-05-07T07:28:43;28.00;;;23.00;;
53052;SDS011;38934;52.690;6.184;2023-05-07T07:31:12;27.52;;;22.70;;
53052;SDS011;38934;52.690;6.184;2023-05-07T07:33:39;29.95;;;23.02;;
53052;SDS011;38934;52.690;6.184;2023-05-07T07:36:07;28.33;;;21.77;;
53052;SDS011;38934;52.690;6.184;2023-05-07T07:38:34;25.98;;;21.17;;
53052;SDS011;38934;52.690;6.184;2023-05-07T07:41:00;26.40;;;21.55;;
53052;SDS011;38934;52.690;6.184;2023-05-07T07:43:28;28.92;;;22.73;;
53052;SDS011;38934;52.690;6.184;2023-05-07T07:45:54;26.75;;;20.63;;
53052;SDS011;38934;52.690;6.184;2023-05-07T07:48:20;25.63;;;21.17;;
53052;SDS011;38934;52.690;6.184;2023-05-07T07:50:48;27.48;;;21.73;;
53052;SDS011;38934;52.690;6.184;2023-05-07T07:53:15;26.58;;;21.42;;
53052;SDS011;38934;52.690;6.184;2023-05-07T07:55:40;23.95;;;20.50;;
53052;SDS011;38934;52.690;6.184;2023-05-07T07:58:06;25.23;;;20.92;;
53052;SDS011;38934;52.690;6.184;2023-05-07T08:00:33;26.27;;;20.38;;
53052;SDS011;38934;52.690;6.184;2023-05-07T08:02:59;27.83;;;22.05;;
53052;SDS011;38934;52.690;6.184;2023-05-07T08:05:25;27.42;;;21.48;;
53052;SDS011;38934;52.690;6.184;2023-05-07T08:08:02;24.50;;;20.67;;
53052;SDS011;38934;52.690;6.184;2023-05-07T08:10:28;28.52;;;20.63;;
53052;SDS011;38934;52.690;6.184;2023-05-07T08:12:54;26.48;;;21.23;;
53052;SDS011;38934;52.690;6.184;2023-05-07T08:15:20;26.90;;;21.67;;
53052;SDS011;38934;52.690;6.184;2023-05-07T08:17:45;26.35;;;21.48;;
53052;SDS011;38934;52.690;6.184;2023-05-07T08:20:13;26.05;;;20.52;;
53052;SDS011;38934;52.690;6.184;2023-05-07T08:22:42;28.55;;;20.95;;
53052;SDS011;38934;52.690;6.184;2023-05-07T08:25:08;25.92;;;20.40;;
53052;SDS011;38934;52.690;6.184;2023-05-07T08:27:34;24.42;;;20.58;;
53052;SDS011;38934;52.690;6.184;2023-05-07T08:30:00;23.73;;;20.52;;
53052;SDS011;38934;52.690;6.184;2023-05-07T08:32:28;26.13;;;22.08;;
53052;SDS011;38934;52.690;6.184;2023-05-07T08:34:54;22.50;;;18.77;;
53052;SDS011;38934;52.690;6.184;2023-05-07T08:37:22;23.48;;;19.67;;
53052;SDS011;38934;52.690;6.184;2023-05-07T08:39:47;24.42;;;21.20;;
53052;SDS011;38934;52.690;6.184;2023-05-07T08:42:15;24.70;;;20.85;;
53052;SDS011;38934;52.690;6.184;2023-05-07T08:44:42;22.08;;;19.58;;
53052;SDS011;38934;52.690;6.184;2023-05-07T08:47:13;22.83;;;19.27;;
53052;SDS011;38934;52.690;6.184;2023-05-07T08:49:39;19.98;;;17.83;;
53052;SDS011;38934;52.690;6.184;2023-05-07T08:52:11;21.23;;;18.77;;
53052;SDS011;38934;52.690;6.184;2023-05-07T08:54:37;22.95;;;18.63;;
53052;SDS011;38934;52.690;6.184;2023-05-07T08:57:07;23.10;;;20.27;;
53052;SDS011;38934;52.690;6.184;2023-05-07T08:59:32;21.08;;;16.58;;
53052;SDS011;38934;52.690;6.184;2023-05-07T09:01:58;22.92;;;19.05;;
53052;SDS011;38934;52.690;6.184;2023-05-07T09:04:23;20.13;;;17.98;;
53052;SDS011;38934;52.690;6.184;2023-05-07T09:06:50;19.73;;;17.63;;
53052;SDS011;38934;52.690;6.184;2023-05-07T09:09:17;19.90;;;17.45;;
53052;SDS011;38934;52.690;6.184;2023-05-07T09:11:43;20.98;;;17.83;;
53052;SDS011;38934;52.690;6.184;2023-05-07T09:14:09;20.50;;;17.13;;
53052;SDS011;38934;52.690;6.184;2023-05-07T09:16:35;21.35;;;17.63;;
53052;SDS011;38934;52.690;6.184;2023-05-07T09:19:01;20.35;;;17.77;;
53052;SDS011;38934;52.690;6.184;2023-05-07T09:21:28;19.50;;;17.08;;
53052;SDS011;38934;52.690;6.184;2023-05-07T09:23:54;19.70;;;17.60;;
53052;SDS011;38934;52.690;6.184;2023-05-07T09:26:21;21.48;;;18.67;;
53052;SDS011;38934;52.690;6.184;2023-05-07T09:28:47;21.35;;;17.73;;
53052;SDS011;38934;52.690;6.184;2023-05-07T09:33:46;19.98;;;17.38;;
53052;SDS011;38934;52.690;6.184;2023-05-07T09:36:11;20.55;;;18.33;;
53052;SDS011;38934;52.690;6.184;2023-05-07T09:38:37;20.33;;;18.13;;
53052;SDS011;38934;52.690;6.184;2023-05-07T09:43:34;22.13;;;19.55;;
53052;SDS011;38934;52.690;6.184;2023-05-07T09:46:09;20.45;;;17.48;;
53052;SDS011;38934;52.690;6.184;2023-05-07T09:48:38;21.42;;;18.30;;
53052;SDS011;38934;52.690;6.184;2023-05-07T09:54:05;21.73;;;18.33;;
53052;SDS011;38934;52.690;6.184;2023-05-07T09:56:32;18.83;;;16.80;;
53052;SDS011;38934;52.690;6.184;2023-05-07T09:59:02;21.65;;;17.35;;
53052;SDS011;38934;52.690;6.184;2023-05-07T10:01:30;23.77;;;17.13;;
53052;SDS011;38934;52.690;6.184;2023-05-07T10:03:57;23.35;;;18.45;;
53052;SDS011;38934;52.690;6.184;2023-05-07T10:06:24;21.20;;;18.83;;
53052;SDS011;38934;52.690;6.184;2023-05-07T10:08:54;21.80;;;19.17;;
53052;SDS011;38934;52.690;6.184;2023-05-07T10:11:21;23.00;;;17.85;;
53052;SDS011;38934;52.690;6.184;2023-05-07T10:13:47;19.42;;;17.00;;
53052;SDS011;38934;52.690;6.184;2023-05-07T10:16:14;20.38;;;17.88;;
53052;SDS011;38934;52.690;6.184;2023-05-07T10:18:40;20.85;;;17.90;;
53052;SDS011;38934;52.690;6.184;2023-05-07T10:23:33;20.27;;;17.05;;
53052;SDS011;38934;52.690;6.184;2023-05-07T10:26:00;21.63;;;16.70;;
53052;SDS011;38934;52.690;6.184;2023-05-07T10:28:29;19.02;;;16.65;;
53052;SDS011;38934;52.690;6.184;2023-05-07T10:31:07;21.83;;;16.92;;
53052;SDS011;38934;52.690;6.184;2023-05-07T10:33:40;20.13;;;16.08;;
53052;SDS011;38934;52.690;6.184;2023-05-07T10:36:09;20.85;;;17.13;;
53052;SDS011;38934;52.690;6.184;2023-05-07T10:38:35;20.63;;;17.73;;
53052;SDS011;38934;52.690;6.184;2023-05-07T10:41:01;23.02;;;17.70;;
53052;SDS011;38934;52.690;6.184;2023-05-07T10:43:40;22.67;;;18.15;;
53052;SDS011;38934;52.690;6.184;2023-05-07T10:46:16;21.92;;;18.00;;
53052;SDS011;38934;52.690;6.184;2023-05-07T10:51:28;20.45;;;17.77;;
53052;SDS011;38934;52.690;6.184;2023-05-07T10:56:43;19.10;;;16.15;;
53052;SDS011;38934;52.690;6.184;2023-05-07T11:02:02;21.05;;;16.77;;
53052;SDS011;38934;52.690;6.184;2023-05-07T11:04:29;21.17;;;16.40;;
53052;SDS011;38934;52.690;6.184;2023-05-07T11:15:09;20.15;;;15.30;;
53052;SDS011;38934;52.690;6.184;2023-05-07T11:25:59;20.60;;;17.35;;
53052;SDS011;38934;52.690;6.184;2023-05-07T11:28:36;18.48;;;15.20;;
53052;SDS011;38934;52.690;6.184;2023-05-07T11:31:03;18.98;;;15.63;;
53052;SDS011;38934;52.690;6.184;2023-05-07T11:33:30;20.63;;;16.33;;
53052;SDS011;38934;52.690;6.184;2023-05-07T11:35:56;17.83;;;15.73;;
53052;SDS011;38934;52.690;6.184;2023-05-07T11:38:23;17.63;;;15.55;;
53052;SDS011;38934;52.690;6.184;2023-05-07T11:40:50;20.45;;;16.77;;
53052;SDS011;38934;52.690;6.184;2023-05-07T11:43:26;19.60;;;16.35;;
53052;SDS011;38934;52.690;6.184;2023-05-07T11:45:53;19.85;;;15.85;;
53052;SDS011;38934;52.690;6.184;2023-05-07T11:48:20;19.88;;;16.95;;
53052;SDS011;38934;52.690;6.184;2023-05-07T11:51:01;20.38;;;17.42;;
53052;SDS011;38934;52.690;6.184;2023-05-07T11:53:39;19.33;;;16.13;;
53052;SDS011;38934;52.690;6.184;2023-05-07T11:56:10;18.35;;;15.90;;
53052;SDS011;38934;52.690;6.184;2023-05-07T11:58:37;18.00;;;16.08;;
53052;SDS011;38934;52.690;6.184;2023-05-07T12:01:07;21.30;;;17.00;;
53052;SDS011;38934;52.690;6.184;2023-05-07T12:03:40;20.02;;;16.38;;
53052;SDS011;38934;52.690;6.184;2023-05-07T12:08:42;20.50;;;17.02;;
53052;SDS011;38934;52.690;6.184;2023-05-07T12:11:10;18.75;;;15.75;;
53052;SDS011;38934;52.690;6.184;2023-05-07T12:13:40;20.05;;;16.23;;
53052;SDS011;38934;52.690;6.184;2023-05-07T12:16:07;18.65;;;16.05;;
53052;SDS011;38934;52.690;6.184;2023-05-07T12:18:34;19.58;;;15.90;;
53052;SDS011;38934;52.690;6.184;2023-05-07T12:21:01;17.75;;;14.82;;
53052;SDS011;38934;52.690;6.184;2023-05-07T12:23:27;16.58;;;14.35;;
53052;SDS011;38934;52.690;6.184;2023-05-07T12:25:55;18.10;;;15.90;;
53052;SDS011;38934;52.690;6.184;2023-05-07T12:28:21;18.73;;;15.90;;
53052;SDS011;38934;52.690;6.184;2023-05-07T12:30:47;18.95;;;16.40;;
53052;SDS011;38934;52.690;6.184;2023-05-07T12:33:23;22.60;;;18.13;;
53052;SDS011;38934;52.690;6.184;2023-05-07T12:35:50;19.77;;;16.90;;
53052;SDS011;38934;52.690;6.184;2023-05-07T12:38:19;18.13;;;15.73;;
53052;SDS011;38934;52.690;6.184;2023-05-07T12:40:49;19.60;;;16.58;;
53052;SDS011;38934;52.690;6.184;2023-05-07T12:45:50;18.58;;;16.60;;
53052;SDS011;38934;52.690;6.184;2023-05-07T12:48:19;21.58;;;17.10;;
53052;SDS011;38934;52.690;6.184;2023-05-07T12:50:45;16.98;;;15.07;;
53052;SDS011;38934;52.690;6.184;2023-05-07T12:53:25;17.33;;;15.38;;
53052;SDS011;38934;52.690;6.184;2023-05-07T12:55:52;17.65;;;15.55;;
53052;SDS011;38934;52.690;6.184;2023-05-07T12:58:20;19.27;;;15.75;;
53052;SDS011;38934;52.690;6.184;2023-05-07T13:00:49;18.13;;;14.98;;
53052;SDS011;38934;52.690;6.184;2023-05-07T13:03:23;19.25;;;15.35;;
53052;SDS011;38934;52.690;6.184;2023-05-07T13:05:50;18.45;;;15.40;;
53052;SDS011;38934;52.690;6.184;2023-05-07T13:08:26;16.50;;;14.63;;
53052;SDS011;38934;52.690;6.184;2023-05-07T13:11:00;17.73;;;15.18;;
53052;SDS011;38934;52.690;6.184;2023-05-07T13:13:37;17.73;;;15.82;;
53052;SDS011;38934;52.690;6.184;2023-05-07T13:16:04;19.33;;;16.52;;
53052;SDS011;38934;52.690;6.184;2023-05-07T13:18:31;19.08;;;15.50;;
53052;SDS011;38934;52.690;6.184;2023-05-07T13:20:58;18.00;;;14.93;;
53052;SDS011;38934;52.690;6.184;2023-05-07T13:23:25;16.17;;;14.43;;
53052;SDS011;38934;52.690;6.184;2023-05-07T13:25:51;17.80;;;15.23;;
53052;SDS011;38934;52.690;6.184;2023-05-07T13:28:19;17.40;;;14.77;;
53052;SDS011;38934;52.690;6.184;2023-05-07T13:30:45;15.80;;;14.07;;
53052;SDS011;38934;52.690;6.184;2023-05-07T13:33:11;19.05;;;16.45;;
53052;SDS011;38934;52.690;6.184;2023-05-07T13:35:37;17.73;;;15.80;;
53052;SDS011;38934;52.690;6.184;2023-05-07T13:38:03;19.23;;;15.82;;
53052;SDS011;38934;52.690;6.184;2023-05-07T13:40:30;18.02;;;16.02;;
53052;SDS011;38934;52.690;6.184;2023-05-07T13:42:56;18.65;;;16.02;;
53052;SDS011;38934;52.690;6.184;2023-05-07T13:45:23;17.83;;;15.93;;
53052;SDS011;38934;52.690;6.184;2023-05-07T13:47:52;17.65;;;15.63;;
53052;SDS011;38934;52.690;6.184;2023-05-07T13:50:18;16.70;;;14.02;;
53052;SDS011;38934;52.690;6.184;2023-05-07T13:52:47;17.23;;;14.75;;
53052;SDS011;38934;52.690;6.184;2023-05-07T13:55:20;18.57;;;15.53;;
53052;SDS011;38934;52.690;6.184;2023-05-07T13:57:53;16.30;;;14.48;;
53052;SDS011;38934;52.690;6.184;2023-05-07T14:00:28;16.27;;;14.57;;
53052;SDS011;38934;52.690;6.184;2023-05-07T14:02:55;15.82;;;14.05;;
53052;SDS011;38934;52.690;6.184;2023-05-07T14:05:22;17.40;;;14.75;;
53052;SDS011;38934;52.690;6.184;2023-05-07T14:07:51;17.60;;;15.27;;
53052;SDS011;38934;52.690;6.184;2023-05-07T14:10:18;15.13;;;13.45;;
53052;SDS011;38934;52.690;6.184;2023-05-07T14:12:44;15.55;;;13.68;;
53052;SDS011;38934;52.690;6.184;2023-05-07T14:15:11;16.27;;;14.20;;
53052;SDS011;38934;52.690;6.184;2023-05-07T14:17:37;15.30;;;13.57;;
53052;SDS011;38934;52.690;6.184;2023-05-07T14:20:03;17.38;;;13.70;;
53052;SDS011;38934;52.690;6.184;2023-05-07T14:22:34;15.70;;;13.50;;
53052;SDS011;38934;52.690;6.184;2023-05-07T14:25:01;16.85;;;13.77;;
53052;SDS011;38934;52.690;6.184;2023-05-07T14:27:28;16.20;;;14.23;;
53052;SDS011;38934;52.690;6.184;2023-05-07T14:29:54;15.00;;;13.50;;
53052;SDS011;38934;52.690;6.184;2023-05-07T14:32:20;16.05;;;13.93;;
53052;SDS011;38934;52.690;6.184;2023-05-07T14:34:46;16.25;;;14.43;;
53052;SDS011;38934;52.690;6.184;2023-05-07T14:37:12;16.50;;;14.23;;
53052;SDS011;38934;52.690;6.184;2023-05-07T14:39:38;16.13;;;14.02;;
53052;SDS011;38934;52.690;6.184;2023-05-07T14:42:03;16.90;;;14.85;;
53052;SDS011;38934;52.690;6.184;2023-05-07T14:44:30;17.80;;;14.75;;
53052;SDS011;38934;52.690;6.184;2023-05-07T14:46:56;16.83;;;14.70;;
53052;SDS011;38934;52.690;6.184;2023-05-07T14:49:22;17.73;;;15.02;;
53052;SDS011;38934;52.690;6.184;2023-05-07T14:51:47;18.35;;;15.05;;
53052;SDS011;38934;52.690;6.184;2023-05-07T14:54:15;16.27;;;14.32;;
53052;SDS011;38934;52.690;6.184;2023-05-07T14:56:41;17.02;;;14.63;;
53052;SDS011;38934;52.690;6.184;2023-05-07T14:59:07;17.42;;;14.60;;
53052;SDS011;38934;52.690;6.184;2023-05-07T15:01:34;16.67;;;14.35;;
53052;SDS011;38934;52.690;6.184;2023-05-07T15:04:00;16.08;;;13.85;;
53052;SDS011;38934;52.690;6.184;2023-05-07T15:06:28;18.73;;;15.15;;
53052;SDS011;38934;52.690;6.184;2023-05-07T15:08:58;15.95;;;14.25;;
53052;SDS011;38934;52.690;6.184;2023-05-07T15:11:24;15.23;;;13.57;;
53052;SDS011;38934;52.690;6.184;2023-05-07T15:13:52;16.35;;;13.65;;
53052;SDS011;38934;52.690;6.184;2023-05-07T15:16:18;15.82;;;14.20;;
53052;SDS011;38934;52.690;6.184;2023-05-07T15:18:46;16.08;;;13.85;;
53052;SDS011;38934;52.690;6.184;2023-05-07T15:21:14;16.42;;;14.32;;